Time;durP1;ratioP1;P1;durP2;ratioP2;P2;SDS_P1;SDS_P2;PMS_P1;PMS_P2;Temp;Humidity;BMP_temperature;BMP_pressure;BME280_temperature;BME280_humidity;BME280_pressure;Samples;Min_cycle;Max_cycle;Signal;HPM_P1;HPM_P2
2023/09/04 00:01:15;;;;;;;2.58;2.20;;;;;;;20.97;66.78;95393.59;5014000;28;20244;-75
2023/09/04 00:03:41;;;;;;;4.13;2.38;;;;;;;20.68;70.40;95392.28;5015126;28;20310;-74
2023/09/04 00:06:07;;;;;;;4.80;2.38;;;;;;;20.70;69.80;95388.31;5015801;28;20613;-75
2023/09/04 00:08:32;;;;;;;3.80;2.60;;;;;;;20.67;70.86;95374.69;5012420;28;20749;-76
2023/09/04 00:10:58;;;;;;;9.70;2.80;;;;;;;20.53;72.17;95360.19;5012298;28;20767;-76
2023/09/04 00:13:23;;;;;;;7.80;3.10;;;;;;;20.00;84.05;95356.38;5015098;28;20225;-78
2023/09/04 00:15:53;;;;;;;6.35;3.20;;;;;;;19.15;91.35;95350.63;5030423;28;20229;-78
2023/09/04 00:18:18;;;;;;;9.70;3.20;;;;;;;19.08;95.58;95349.19;5031044;28;20236;-79
2023/09/04 00:20:44;;;;;;;7.63;3.40;;;;;;;19.01;97.16;95346.66;5011965;28;20225;-79
2023/09/04 00:23:09;;;;;;;10.32;3.22;;;;;;;19.31;93.54;95344.50;5026567;28;20608;-74
2023/09/04 00:25:35;;;;;;;9.93;3.40;;;;;;;19.53;96.51;95341.13;5016242;28;20582;-74
2023/09/04 00:28:00;;;;;;;5.77;3.20;;;;;;;19.05;97.10;95345.16;5013469;28;20269;-74
2023/09/04 00:30:26;;;;;;;7.17;3.53;;;;;;;18.79;100.00;95335.97;5010455;28;20638;-73
2023/09/04 00:32:52;;;;;;;9.20;3.50;;;;;;;18.91;100.00;95338.56;5014630;28;20249;-74
2023/09/04 00:35:19;;;;;;;9.00;3.60;;;;;;;19.17;98.41;95329.16;5030362;28;20638;-74
2023/09/04 00:37:44;;;;;;;10.03;3.60;;;;;;;19.04;99.57;95314.34;5028734;28;20261;-75
2023/09/04 00:40:10;;;;;;;8.23;3.47;;;;;;;18.96;98.87;95312.13;5012579;28;20237;-74
2023/09/04 00:42:36;;;;;;;7.17;3.20;;;;;;;19.15;99.68;95307.38;5045524;28;20806;-75
2023/09/04 00:45:01;;;;;;;9.30;3.40;;;;;;;19.18;99.31;95304.19;4995484;28;20224;-75
2023/09/04 00:47:28;;;;;;;10.03;3.27;;;;;;;19.30;99.12;95294.28;4998318;28;20229;-75
2023/09/04 00:49:56;;;;;;;5.50;2.90;;;;;;;19.45;96.70;95292.69;5014092;28;20336;-74
2023/09/04 00:52:23;;;;;;;7.63;3.10;;;;;;;19.55;96.97;95286.72;5010972;28;20241;-74
2023/09/04 00:54:48;;;;;;;5.40;3.00;;;;;;;19.53;97.42;95280.84;5015248;28;20234;-74
2023/09/04 00:57:14;;;;;;;6.70;3.17;;;;;;;19.43;98.20;95268.25;5012053;28;20233;-75
2023/09/04 00:59:42;;;;;;;5.85;3.13;;;;;;;19.22;98.72;95266.34;5009765;28;20311;-74
2023/09/04 01:02:08;;;;;;;5.37;2.83;;;;;;;19.15;98.36;95264.91;5027288;28;20872;-74
2023/09/04 01:04:34;;;;;;;5.70;3.20;;;;;;;19.20;98.71;95272.94;5014846;28;20241;-74
2023/09/04 01:07:00;;;;;;;4.43;3.10;;;;;;;19.21;97.85;95263.91;5015783;28;20695;-74
2023/09/04 01:09:26;;;;;;;4.93;3.03;;;;;;;19.07;99.83;95275.91;5014951;28;20224;-73
2023/09/04 01:12:00;;;;;;;5.17;3.00;;;;;;;19.15;97.72;95272.88;5015271;28;20263;-73
2023/09/04 01:14:26;;;;;;;5.88;3.20;;;;;;;18.45;100.00;95264.56;5044091;28;20235;-75
2023/09/04 01:16:51;;;;;;;6.57;3.20;;;;;;;18.32;100.00;95256.94;4989035;28;20237;-74
2023/09/04 01:19:18;;;;;;;8.23;3.33;;;;;;;18.48;100.00;95258.81;5010850;28;20236;-75
2023/09/04 01:21:46;;;;;;;5.97;3.27;;;;;;;18.51;100.00;95248.53;5012225;28;20303;-74
2023/09/04 01:24:12;;;;;;;5.60;3.20;;;;;;;18.59;100.00;95247.31;5029889;28;20275;-74
2023/09/04 01:26:53;;;;;;;7.63;3.43;;;;;;;18.58;100.00;95243.88;5013764;28;20237;-74
2023/09/04 01:29:23;;;;;;;5.23;3.50;;;;;;;18.40;100.00;95248.56;5014294;28;20224;-74
2023/09/04 01:32:10;;;;;;;6.67;3.50;;;;;;;18.12;100.00;95239.63;5014450;28;20228;-75
2023/09/04 01:34:44;;;;;;;5.37;3.40;;;;;;;18.09;100.00;95232.16;5010939;28;20229;-75
2023/09/04 01:37:10;;;;;;;7.97;3.70;;;;;;;18.28;100.00;95235.38;5015760;28;20233;-73
2023/09/04 01:39:36;;;;;;;7.30;4.03;;;;;;;18.22;100.00;95238.19;5016508;28;20225;-74
2023/09/04 01:42:02;;;;;;;6.43;3.73;;;;;;;18.38;100.00;95240.88;5010323;28;20671;-75
2023/09/04 01:44:27;;;;;;;6.27;3.63;;;;;;;18.73;100.00;95230.84;5010528;28;20261;-75
2023/09/04 01:46:55;;;;;;;7.97;3.40;;;;;;;18.66;100.00;95230.22;5010659;28;20310;-74
2023/09/04 01:49:21;;;;;;;6.20;3.57;;;;;;;18.26;100.00;95229.53;5012652;28;20237;-75
2023/09/04 01:51:46;;;;;;;5.67;3.60;;;;;;;18.32;100.00;95217.97;5011858;28;20306;-75
2023/09/04 01:54:12;;;;;;;6.67;3.30;;;;;;;18.30;100.00;95229.84;5010534;28;20237;-74
2023/09/04 01:56:38;;;;;;;6.27;3.80;;;;;;;18.38;100.00;95224.97;5013267;28;20248;-74
2023/09/04 01:59:03;;;;;;;8.50;3.60;;;;;;;18.58;100.00;95235.13;5009260;28;20222;-73
2023/09/04 02:01:29;;;;;;;5.20;3.50;;;;;;;18.93;100.00;95240.16;5013332;28;20867;-74
2023/09/04 02:03:58;;;;;;;4.10;3.40;;;;;;;19.00;100.00;95238.16;5010056;28;20233;-74
2023/09/04 02:06:26;;;;;;;5.40;3.53;;;;;;;19.15;100.00;95241.03;5011460;28;20229;-74
2023/09/04 02:08:51;;;;;;;4.73;3.60;;;;;;;19.12;99.95;95241.50;5014174;28;20226;-74
2023/09/04 02:11:17;;;;;;;4.43;3.30;;;;;;;19.11;98.30;95245.19;5009663;28;20271;-73
2023/09/04 02:13:45;;;;;;;4.33;3.53;;;;;;;19.18;97.49;95236.00;5026419;28;20226;-74
2023/09/04 02:16:11;;;;;;;6.07;3.50;;;;;;;19.16;93.60;95237.31;5015100;28;20595;-73
2023/09/04 02:18:38;;;;;;;4.37;3.40;;;;;;;19.18;93.36;95236.00;5011175;28;20237;-79
2023/09/04 02:21:04;;;;;;;4.70;3.50;;;;;;;19.15;94.27;95243.69;5014276;28;20237;-79
2023/09/04 02:23:29;;;;;;;5.77;3.60;;;;;;;19.20;95.89;95238.44;5012801;28;20233;-80
2023/09/04 02:25:55;;;;;;;4.47;3.33;;;;;;;19.14;93.29;95244.72;5015486;28;20225;-79
2023/09/04 02:28:22;;;;;;;5.50;3.30;;;;;;;19.07;94.51;95242.22;5012611;28;20261;-77
2023/09/04 02:30:47;;;;;;;6.17;3.60;;;;;;;19.04;95.80;95239.25;5011795;28;20236;-79
2023/09/04 02:33:13;;;;;;;5.93;3.33;;;;;;;19.10;92.72;95233.00;5010782;28;20260;-78
2023/09/04 02:35:38;;;;;;;5.00;3.60;;;;;;;19.21;92.17;95230.22;5012114;28;20237;-78
2023/09/04 02:38:04;;;;;;;4.13;3.60;;;;;;;19.09;91.07;95218.09;5028475;28;20251;-78
2023/09/04 02:40:29;;;;;;;3.70;3.40;;;;;;;19.20;91.51;95225.16;5026122;28;20918;-77
2023/09/04 02:42:55;;;;;;;5.17;3.80;;;;;;;19.13;92.23;95224.53;5032349;28;20703;-78
2023/09/04 02:45:21;;;;;;;5.10;3.53;;;;;;;19.17;92.46;95220.34;5025307;28;20225;-77
2023/09/04 02:47:46;;;;;;;6.03;3.83;;;;;;;19.12;94.36;95217.63;5012615;28;20229;-78
2023/09/04 02:50:12;;;;;;;4.63;3.53;;;;;;;19.00;94.08;95230.19;5028738;28;20226;-78
2023/09/04 02:52:38;;;;;;;5.47;3.80;;;;;;;19.07;92.82;95222.84;5011860;28;20324;-78
2023/09/04 02:55:04;;;;;;;4.50;3.70;;;;;;;19.07;91.38;95222.84;5026173;28;20751;-77
2023/09/04 02:57:30;;;;;;;5.27;3.90;;;;;;;19.05;91.23;95222.31;5010769;28;20233;-76
2023/09/04 02:59:56;;;;;;;4.70;3.40;;;;;;;19.13;90.57;95219.25;5013474;28;20517;-75
2023/09/04 03:02:22;;;;;;;4.73;3.87;;;;;;;19.13;89.81;95213.94;5013988;28;20758;-76
2023/09/04 03:04:55;;;;;;;6.30;3.80;;;;;;;19.15;89.63;95219.78;5015297;28;20312;-76
2023/09/04 03:07:26;;;;;;;4.27;3.70;;;;;;;19.12;88.98;95218.44;5043175;28;20236;-77
2023/09/04 03:09:58;;;;;;;4.10;3.60;;;;;;;19.02;89.03;95206.84;5015140;28;20233;-78
2023/09/04 03:12:24;;;;;;;5.67;3.90;;;;;;;19.03;89.20;95209.28;5029043;28;20233;-76
2023/09/04 03:14:56;;;;;;;6.57;3.53;;;;;;;19.01;88.10;95203.41;5015800;28;20238;-73
2023/09/04 03:17:23;;;;;;;5.37;3.80;;;;;;;19.02;88.02;95204.19;5020217;28;20684;-73
2023/09/04 03:19:53;;;;;;;6.30;3.70;;;;;;;18.98;87.67;95205.75;5013890;28;20249;-75
2023/09/04 03:22:18;;;;;;;4.17;3.60;;;;;;;18.94;87.76;95202.00;5033509;28;20237;-74
2023/09/04 03:24:44;;;;;;;5.27;3.47;;;;;;;18.86;86.71;95213.00;5021190;28;20236;-74
2023/09/04 03:27:09;;;;;;;4.00;3.57;;;;;;;18.79;87.55;95205.22;5021486;28;20770;-74
2023/09/04 03:29:35;;;;;;;5.57;3.50;;;;;;;18.94;86.91;95207.28;5032349;28;20230;-73
2023/09/04 03:32:01;;;;;;;4.37;3.50;;;;;;;18.92;85.74;95210.16;5034216;28;20378;-74
2023/09/04 03:34:28;;;;;;;4.97;3.60;;;;;;;18.79;85.82;95219.25;5035530;28;20230;-73
2023/09/04 03:36:53;;;;;;;5.30;3.50;;;;;;;18.82;85.41;95220.63;5035792;28;20241;-73
2023/09/04 03:39:19;;;;;;;5.30;3.53;;;;;;;18.90;84.57;95224.72;5015423;28;20230;-74
2023/09/04 03:41:44;;;;;;;5.00;3.27;;;;;;;18.80;85.98;95220.88;5035774;28;20298;-74
2023/09/04 03:44:10;;;;;;;4.67;3.37;;;;;;;18.81;86.00;95216.38;5015249;28;20254;-75
2023/09/04 03:46:35;;;;;;;5.33;3.60;;;;;;;18.78;84.97;95224.81;5037143;28;20237;-73
2023/09/04 03:49:01;;;;;;;3.73;3.33;;;;;;;18.71;85.64;95218.88;5020989;28;20232;-75
2023/09/04 03:51:27;;;;;;;6.53;3.60;;;;;;;18.52;86.16;95204.25;5034911;28;20233;-73
2023/09/04 03:53:52;;;;;;;4.27;3.50;;;;;;;18.30;86.53;95217.41;5018082;28;20912;-74
2023/09/04 03:56:18;;;;;;;4.20;3.47;;;;;;;18.29;87.45;95231.72;5033441;28;20229;-74
2023/09/04 03:58:43;;;;;;;4.70;3.60;;;;;;;18.43;86.97;95218.94;5023139;28;20316;-74
2023/09/04 04:01:09;;;;;;;5.30;3.50;;;;;;;18.43;87.95;95225.06;5017598;28;20233;-76
2023/09/04 04:03:34;;;;;;;6.97;3.47;;;;;;;18.22;88.33;95222.31;5014481;28;20241;-76
2023/09/04 04:06:00;;;;;;;5.93;3.70;;;;;;;18.42;88.20;95226.09;5028189;28;20236;-75
2023/09/04 04:08:25;;;;;;;6.73;3.80;;;;;;;18.49;87.26;95224.09;5020631;28;20226;-79
2023/09/04 04:10:51;;;;;;;7.13;3.90;;;;;;;18.33;88.30;95229.38;5015863;28;20233;-75
2023/09/04 04:13:17;;;;;;;5.87;4.00;;;;;;;18.37;88.06;95222.53;5014271;28;20226;-75
2023/09/04 04:15:43;;;;;;;6.00;4.00;;;;;;;18.26;88.46;95224.22;5011874;28;20230;-75
2023/09/04 04:18:09;;;;;;;5.97;4.10;;;;;;;18.16;89.26;95230.16;5030870;28;20315;-76
2023/09/04 04:20:35;;;;;;;4.80;3.73;;;;;;;18.27;89.03;95228.47;5009417;28;20233;-75
2023/09/04 04:23:01;;;;;;;7.17;4.00;;;;;;;18.25;89.37;95230.56;5009535;28;20339;-75
2023/09/04 04:25:26;;;;;;;6.23;4.07;;;;;;;18.17;89.97;95230.97;5010696;28;20225;-76
2023/09/04 04:27:52;;;;;;;5.83;3.77;;;;;;;18.05;89.64;95225.72;5033600;28;20233;-76
2023/09/04 04:30:17;;;;;;;4.57;3.90;;;;;;;18.09;89.98;95226.03;5008650;28;20749;-76
2023/09/04 04:32:44;;;;;;;4.77;3.90;;;;;;;18.16;89.31;95216.09;5007771;28;20237;-77
2023/09/04 04:35:09;;;;;;;6.07;3.80;;;;;;;18.03;89.13;95216.41;5028744;28;20733;-75
2023/09/04 04:37:35;;;;;;;7.20;4.20;;;;;;;18.05;88.84;95224.91;5012105;28;20315;-76
2023/09/04 04:40:03;;;;;;;5.77;3.80;;;;;;;17.98;88.32;95222.41;5040850;28;20234;-75
2023/09/04 04:42:29;;;;;;;4.50;3.97;;;;;;;18.13;88.41;95224.50;5010630;28;21045;-74
2023/09/04 04:44:55;;;;;;;4.30;3.70;;;;;;;18.16;88.95;95218.75;5005572;28;20242;-76
2023/09/04 04:47:21;;;;;;;5.10;3.60;;;;;;;18.25;87.47;95221.81;5006885;28;20230;-75
2023/09/04 04:49:46;;;;;;;5.50;3.27;;;;;;;18.11;87.09;95222.13;5007510;28;20234;-76
2023/09/04 04:52:12;;;;;;;5.07;3.37;;;;;;;18.10;86.56;95225.00;5007018;28;20229;-76
2023/09/04 04:54:38;;;;;;;7.27;3.37;;;;;;;18.04;86.67;95228.59;5007762;28;20230;-76
2023/09/04 04:57:03;;;;;;;5.67;3.50;;;;;;;17.89;86.99;95221.19;5039743;28;20237;-76
2023/09/04 04:59:29;;;;;;;4.57;3.47;;;;;;;17.97;87.01;95222.66;5007853;28;20687;-77
2023/09/04 05:01:56;;;;;;;4.97;3.00;;;;;;;18.09;85.91;95220.75;5009582;28;20624;-77
2023/09/04 05:04:22;;;;;;;6.80;3.13;;;;;;;17.94;85.85;95228.41;5002885;28;20233;-77
2023/09/04 05:06:47;;;;;;;4.13;3.20;;;;;;;18.07;85.57;95226.28;5002238;28;20587;-75
2023/09/04 05:09:13;;;;;;;5.47;2.83;;;;;;;18.27;85.33;95227.69;5008949;28;20238;-76
2023/09/04 05:11:39;;;;;;;4.83;3.03;;;;;;;18.07;85.04;95228.94;5006264;28;20299;-79
2023/09/04 05:14:04;;;;;;;4.37;3.03;;;;;;;18.08;85.25;95222.59;5021479;28;20316;-76
2023/09/04 05:16:30;;;;;;;3.70;3.00;;;;;;;18.08;84.81;95222.59;5007352;28;20226;-76
2023/09/04 05:18:55;;;;;;;4.70;3.10;;;;;;;17.99;85.47;95217.91;5015874;28;20240;-76
2023/09/04 05:21:21;;;;;;;6.27;3.10;;;;;;;18.04;85.95;95225.94;5003543;28;20694;-76
2023/09/04 05:23:49;;;;;;;4.03;3.00;;;;;;;18.10;85.17;95220.50;5022380;28;20664;-75
2023/09/04 05:26:15;;;;;;;4.47;3.10;;;;;;;17.84;85.40;95220.31;5013698;28;20262;-77
2023/09/04 05:28:41;;;;;;;3.90;3.10;;;;;;;17.92;84.96;95218.06;4999363;28;20240;-77
2023/09/04 05:31:07;;;;;;;3.17;2.87;;;;;;;17.91;85.02;95215.66;5029982;28;20233;-76
2023/09/04 05:33:33;;;;;;;4.83;2.93;;;;;;;17.91;85.54;95215.66;5013982;28;20257;-76
2023/09/04 05:35:59;;;;;;;3.83;3.30;;;;;;;17.77;84.80;95217.00;5000999;28;20241;-74
2023/09/04 05:38:25;;;;;;;4.43;2.90;;;;;;;17.71;84.88;95231.16;5016264;28;20860;-79
2023/09/04 05:40:54;;;;;;;4.83;3.40;;;;;;;17.82;84.39;95220.53;4990610;28;20261;-76
2023/09/04 05:43:20;;;;;;;4.00;3.30;;;;;;;17.70;85.12;95217.09;4996466;28;20230;-75
2023/09/04 05:45:46;;;;;;;6.10;3.70;;;;;;;17.68;84.94;95213.09;5016888;28;20242;-77
2023/09/04 05:48:11;;;;;;;4.80;3.70;;;;;;;17.78;84.33;95205.34;5014411;28;20238;-75
2023/09/04 05:50:37;;;;;;;5.37;3.60;;;;;;;17.74;84.54;95197.09;4998141;28;20788;-77
2023/09/04 05:53:03;;;;;;;3.43;3.10;;;;;;;17.56;84.71;95207.03;5011192;28;20230;-77
2023/09/04 05:55:29;;;;;;;8.63;3.30;;;;;;;17.63;84.83;95197.09;4998217;28;20226;-76
2023/09/04 05:57:54;;;;;;;5.30;3.40;;;;;;;17.73;85.32;95199.94;4999851;28;20233;-75
2023/09/04 06:00:21;;;;;;;5.57;3.50;;;;;;;17.76;84.79;95196.84;5012064;28;20228;-76
2023/09/04 06:02:47;;;;;;;5.13;3.40;;;;;;;17.75;84.66;95197.88;5022704;28;20421;-76
2023/09/04 06:05:13;;;;;;;7.30;3.50;;;;;;;17.62;85.19;95206.09;5011327;28;21437;-77
2023/09/04 06:07:41;;;;;;;5.23;3.37;;;;;;;17.71;85.24;95200.19;5017740;28;20266;-77
2023/09/04 06:10:07;;;;;;;4.23;3.40;;;;;;;17.65;85.91;95200.34;4999549;28;20237;-76
2023/09/04 06:12:33;;;;;;;7.17;3.80;;;;;;;17.71;84.85;95205.50;5012432;28;20229;-77
2023/09/04 06:14:59;;;;;;;5.47;3.70;;;;;;;17.64;85.29;95206.66;5012440;28;20269;-78
2023/09/04 06:17:24;;;;;;;6.20;3.70;;;;;;;17.49;85.26;95207.94;5018178;28;20241;-79
2023/09/04 06:19:50;;;;;;;4.67;3.70;;;;;;;17.38;85.97;95205.34;5039556;28;20790;-78
2023/09/04 06:22:15;;;;;;;8.17;3.70;;;;;;;17.52;85.80;95204.06;5023056;28;20304;-77
2023/09/04 06:24:41;;;;;;;4.33;3.50;;;;;;;17.50;85.37;95206.91;5023571;28;20826;-77
2023/09/04 06:27:07;;;;;;;4.03;3.50;;;;;;;17.36;84.91;95205.56;5037863;28;20237;-77
2023/09/04 06:29:33;;;;;;;5.00;3.67;;;;;;;17.45;85.29;95212.13;5009145;28;21018;-79
2023/09/04 06:31:59;;;;;;;4.73;3.50;;;;;;;17.29;85.49;95202.25;5022595;28;20257;-78
2023/09/04 06:34:24;;;;;;;4.60;3.60;;;;;;;17.53;85.03;95223.41;5024455;28;20226;-77
2023/09/04 06:36:50;;;;;;;5.57;3.67;;;;;;;17.68;84.68;95221.84;5005941;28;20230;-77
2023/09/04 06:39:16;;;;;;;4.60;3.63;;;;;;;17.76;83.84;95220.66;5021938;28;20271;-75
2023/09/04 06:41:41;;;;;;;6.07;3.83;;;;;;;17.77;84.46;95219.63;5022496;28;20241;-75
2023/09/04 06:44:08;;;;;;;5.57;3.90;;;;;;;17.83;83.18;95219.50;5024394;28;20287;-75
2023/09/04 06:46:34;;;;;;;6.20;3.90;;;;;;;17.81;83.02;95216.28;5005731;28;20229;-77
2023/09/04 06:49:00;;;;;;;4.43;3.70;;;;;;;17.87;82.79;95231.22;4990000;28;20228;-75
2023/09/04 06:51:26;;;;;;;5.40;3.90;;;;;;;17.78;82.63;95227.34;5005540;28;20233;-76
2023/09/04 06:53:52;;;;;;;7.10;4.17;;;;;;;17.67;83.73;95222.91;5005741;28;20236;-77
2023/09/04 06:56:17;;;;;;;5.10;3.90;;;;;;;17.65;83.67;95218.88;5005772;28;20233;-74
2023/09/04 06:58:46;;;;;;;5.00;4.10;;;;;;;17.72;83.12;95224.84;5006044;28;20296;-75
2023/09/04 07:01:12;;;;;;;4.87;4.20;;;;;;;17.81;82.83;95229.53;5005698;28;20288;-75
2023/09/04 07:03:38;;;;;;;7.53;4.10;;;;;;;17.62;83.64;95222.00;5005498;28;20238;-76
2023/09/04 07:06:03;;;;;;;6.83;4.27;;;;;;;17.62;83.15;95230.75;5022802;28;20218;-76
2023/09/04 07:08:30;;;;;;;5.20;4.10;;;;;;;17.58;83.96;95236.75;5007535;28;20226;-77
2023/09/04 07:10:56;;;;;;;6.07;4.00;;;;;;;17.63;83.75;95242.09;5023528;28;20260;-74
2023/09/04 07:13:21;;;;;;;5.37;4.07;;;;;;;17.56;83.83;95241.44;5022580;28;20222;-76
2023/09/04 07:15:47;;;;;;;6.67;4.03;;;;;;;17.71;83.14;95247.03;5007834;28;20229;-76
2023/09/04 07:18:12;;;;;;;7.57;4.10;;;;;;;17.55;82.97;95234.56;5005782;28;20360;-76
2023/09/04 07:20:38;;;;;;;4.67;4.10;;;;;;;17.58;83.58;95244.69;5006965;28;20726;-77
2023/09/04 07:23:04;;;;;;;6.97;4.30;;;;;;;17.50;83.54;95238.66;5004977;28;20392;-74
2023/09/04 07:25:30;;;;;;;6.23;4.07;;;;;;;17.71;83.17;95241.75;5023433;28;20245;-77
2023/09/04 07:27:56;;;;;;;7.60;4.40;;;;;;;17.92;82.22;95249.03;5027004;28;21108;-75
2023/09/04 07:30:22;;;;;;;6.00;4.70;;;;;;;17.92;82.42;95241.09;5024436;28;20262;-77
2023/09/04 07:32:48;;;;;;;9.13;4.20;;;;;;;17.81;82.52;95241.94;5005290;28;20609;-76
2023/09/04 07:35:13;;;;;;;7.37;4.43;;;;;;;17.83;82.79;95240.69;5001101;28;20230;-74
2023/09/04 07:37:39;;;;;;;5.57;4.53;;;;;;;17.81;82.16;95232.16;5002477;28;20268;-76
2023/09/04 07:40:05;;;;;;;6.93;4.23;;;;;;;17.76;82.91;95234.72;5003461;28;20229;-76
2023/09/04 07:42:30;;;;;;;6.80;4.50;;;;;;;17.91;82.66;95244.78;5020138;28;20226;-76
2023/09/04 07:44:56;;;;;;;6.60;4.57;;;;;;;17.86;82.24;95244.69;5026279;28;20320;-75
2023/09/04 07:47:22;;;;;;;8.37;4.60;;;;;;;17.98;82.05;95235.63;5042063;28;20366;-76
2023/09/04 07:49:48;;;;;;;6.10;4.37;;;;;;;17.80;82.38;95241.13;5007798;28;20230;-75
2023/09/04 07:52:14;;;;;;;7.73;4.80;;;;;;;17.85;82.21;95232.47;5007177;28;20827;-75
2023/09/04 07:54:39;;;;;;;6.57;4.60;;;;;;;17.87;82.08;95241.00;5007046;28;20238;-76
2023/09/04 07:57:07;;;;;;;6.50;4.57;;;;;;;17.92;81.15;95231.31;5024103;28;20636;-74
2023/09/04 07:59:33;;;;;;;6.67;4.97;;;;;;;17.81;81.84;95234.00;5023498;28;20226;-77
2023/09/04 08:01:59;;;;;;;7.00;4.67;;;;;;;17.88;81.51;95224.06;5007130;28;20371;-76
2023/09/04 08:04:24;;;;;;;6.10;4.57;;;;;;;17.91;81.17;95227.03;5017857;28;20316;-76
2023/09/04 08:06:50;;;;;;;6.50;4.80;;;;;;;17.84;81.08;95242.25;5022292;28;20233;-75
2023/09/04 08:09:15;;;;;;;7.00;4.77;;;;;;;17.88;80.78;95237.31;5023198;28;20307;-74
2023/09/04 08:11:41;;;;;;;7.30;4.70;;;;;;;17.82;81.08;95243.53;5023973;28;20273;-76
2023/09/04 08:14:06;;;;;;;9.57;4.50;;;;;;;17.85;80.66;95243.06;5010891;28;20229;-75
2023/09/04 08:16:32;;;;;;;6.57;5.17;;;;;;;17.87;80.50;95248.94;5030860;28;20317;-76
2023/09/04 08:18:58;;;;;;;5.63;4.80;;;;;;;17.98;80.14;95248.09;5029572;28;20666;-75
2023/09/04 08:21:24;;;;;;;6.00;4.70;;;;;;;17.97;80.56;95242.00;5015127;28;20733;-75
2023/09/04 08:23:49;;;;;;;8.87;4.80;;;;;;;17.96;80.39;95235.06;5015887;28;20225;-75
2023/09/04 08:26:15;;;;;;;9.07;5.33;;;;;;;18.08;79.92;95243.78;5012869;28;20237;-75
2023/09/04 08:28:41;;;;;;;9.30;4.80;;;;;;;17.87;80.78;95241.00;5040568;28;20702;-77
2023/09/04 08:31:07;;;;;;;9.77;5.10;;;;;;;18.02;80.00;95238.63;5010596;28;20706;-75
2023/09/04 08:33:34;;;;;;;8.17;5.10;;;;;;;18.17;79.07;95236.28;5013992;28;20959;-75
2023/09/04 08:35:59;;;;;;;8.40;5.20;;;;;;;18.12;79.58;95233.53;5013053;28;20624;-76
2023/09/04 08:38:25;;;;;;;8.17;5.30;;;;;;;18.26;79.54;95240.13;5016143;28;20787;-75
2023/09/04 08:40:52;;;;;;;7.50;5.20;;;;;;;18.09;79.89;95234.81;5028921;28;20264;-75
2023/09/04 08:43:18;;;;;;;6.77;5.27;;;;;;;18.19;79.50;95234.19;5012698;28;20238;-77
2023/09/04 08:45:43;;;;;;;7.57;5.30;;;;;;;18.07;79.17;95233.44;5013766;28;20283;-76
2023/09/04 08:48:11;;;;;;;8.43;5.07;;;;;;;18.23;79.37;95234.50;5012294;28;20240;-75
2023/09/04 08:50:37;;;;;;;6.77;5.10;;;;;;;18.16;79.21;95234.66;5012686;28;20283;-76
2023/09/04 08:53:04;;;;;;;8.73;5.10;;;;;;;18.23;79.05;95235.28;5011846;28;20658;-75
2023/09/04 08:55:29;;;;;;;8.50;5.37;;;;;;;18.17;78.93;95236.28;5015180;28;20319;-77
2023/09/04 08:57:55;;;;;;;7.73;5.17;;;;;;;18.22;78.88;95236.34;5034322;28;20367;-75
2023/09/04 09:00:20;;;;;;;7.77;5.63;;;;;;;18.24;78.98;95242.22;5014362;28;20263;-77
2023/09/04 09:02:46;;;;;;;7.63;5.43;;;;;;;18.21;79.15;95240.03;5011477;28;20237;-73
2023/09/04 09:05:13;;;;;;;10.20;5.20;;;;;;;18.13;78.76;95253.66;5012522;28;20308;-76
2023/09/04 09:07:39;;;;;;;11.10;5.50;;;;;;;18.26;79.86;95261.31;5025873;28;20229;-76
2023/09/04 09:10:05;;;;;;;11.33;5.67;;;;;;;18.25;80.08;95250.94;5011566;28;20244;-77
2023/09/04 09:12:31;;;;;;;7.37;5.07;;;;;;;18.24;79.80;95252.81;5042956;28;20291;-76
2023/09/04 09:14:59;;;;;;;9.33;5.00;;;;;;;18.15;79.90;95255.03;5014812;28;20232;-76
2023/09/04 09:17:25;;;;;;;6.07;4.57;;;;;;;18.24;80.51;95255.47;5028660;28;20224;-76
2023/09/04 09:19:51;;;;;;;5.67;4.40;;;;;;;18.13;80.09;95261.59;5012546;28;20220;-76
2023/09/04 09:22:17;;;;;;;6.37;4.20;;;;;;;18.20;80.87;95258.84;5031542;28;20225;-76
2023/09/04 09:24:54;;;;;;;5.63;4.63;;;;;;;18.27;80.43;95257.63;5031133;28;20244;-76
2023/09/04 09:27:24;;;;;;;5.20;4.33;;;;;;;18.23;80.65;95259.16;5029082;28;20607;-77
2023/09/04 09:29:50;;;;;;;7.07;4.23;;;;;;;18.07;80.70;95252.78;5029392;28;20363;-77
2023/09/04 09:32:17;;;;;;;5.57;4.20;;;;;;;18.29;80.44;95255.56;5011265;28;20233;-75
2023/09/04 09:34:50;;;;;;;4.80;3.90;;;;;;;18.37;79.92;95257.81;5013977;28;20229;-76
2023/09/04 09:37:17;;;;;;;5.90;4.70;;;;;;;18.34;80.48;95252.19;5023813;28;20237;-76
2023/09/04 09:39:43;;;;;;;8.23;4.77;;;;;;;18.35;79.80;95259.88;5010718;28;20694;-76
2023/09/04 09:42:08;;;;;;;7.50;5.50;;;;;;;18.35;80.08;95254.59;5028053;28;20232;-75
2023/09/04 09:44:34;;;;;;;8.13;6.00;;;;;;;18.35;80.39;95251.13;5029216;28;20716;-78
2023/09/04 09:46:59;;;;;;;7.60;5.67;;;;;;;18.31;79.93;95250.81;5011859;28;20233;-74
2023/09/04 09:49:27;;;;;;;8.33;5.70;;;;;;;18.13;80.29;95257.13;5012177;28;20232;-75
2023/09/04 09:51:55;;;;;;;8.43;5.87;;;;;;;18.25;80.51;95251.75;5025441;28;20706;-75
2023/09/04 09:54:40;;;;;;;8.37;5.90;;;;;;;18.33;80.52;95254.03;4994620;28;20380;-77
2023/09/04 09:57:10;;;;;;;10.27;5.93;;;;;;;18.24;80.71;95252.00;5010800;28;20253;-77
2023/09/04 09:59:36;;;;;;;10.53;6.07;;;;;;;18.30;80.73;95241.25;5012669;28;20556;-77
2023/09/04 10:02:03;;;;;;;9.07;6.30;;;;;;;18.31;81.61;95247.34;5007240;28;20231;-76
2023/09/04 10:04:30;;;;;;;9.77;6.37;;;;;;;18.20;82.42;95254.31;5011273;28;20282;-76
2023/09/04 10:06:55;;;;;;;9.17;6.30;;;;;;;18.12;83.86;95255.53;5024741;28;20229;-76
2023/09/04 10:09:23;;;;;;;9.20;6.47;;;;;;;18.12;84.31;95257.38;5027637;28;21085;-76
2023/09/04 10:11:56;;;;;;;10.83;6.80;;;;;;;18.03;86.62;95248.97;5011962;28;20636;-76
2023/09/04 10:14:31;;;;;;;11.33;6.87;;;;;;;18.00;87.08;95257.44;5038342;28;20233;-76
2023/09/04 10:16:59;;;;;;;9.23;7.00;;;;;;;18.01;87.16;95258.19;5013581;28;20245;-76
2023/09/04 10:19:29;;;;;;;10.77;7.00;;;;;;;17.91;88.70;95256.16;5010361;28;20229;-76
2023/09/04 10:21:57;;;;;;;10.67;6.70;;;;;;;17.79;91.99;95252.75;5010902;28;20236;-73
2023/09/04 10:24:45;;;;;;;13.37;7.23;;;;;;;17.68;93.69;95255.44;5011624;28;20707;-74
2023/09/04 10:27:11;;;;;;;13.17;7.83;;;;;;;17.42;96.81;95254.91;5011563;28;20237;-73
2023/09/04 10:29:54;;;;;;;11.43;7.93;;;;;;;17.48;96.00;95255.84;5010992;28;20240;-72
2023/09/04 10:32:20;;;;;;;12.10;8.40;;;;;;;17.28;98.79;95253.56;5010874;28;20233;-73
2023/09/04 10:34:45;;;;;;;13.07;8.23;;;;;;;17.29;99.38;95251.72;5012828;28;20245;-73
2023/09/04 10:37:11;;;;;;;14.30;7.97;;;;;;;17.41;98.92;95261.25;5010208;28;20328;-74
2023/09/04 10:39:38;;;;;;;12.03;7.87;;;;;;;17.44;99.73;95257.31;5011000;28;20237;-74
2023/09/04 10:42:04;;;;;;;14.57;8.30;;;;;;;17.35;100.00;95261.38;5028058;28;20225;-75
2023/09/04 10:44:49;;;;;;;9.67;7.17;;;;;;;17.23;100.00;95265.88;5014282;28;20248;-74
2023/09/04 10:47:15;;;;;;;14.97;7.63;;;;;;;17.21;100.00;95266.13;5025827;28;20240;-73
2023/09/04 10:49:44;;;;;;;12.10;7.43;;;;;;;17.28;99.62;95264.16;5008745;28;20317;-73
2023/09/04 10:52:10;;;;;;;12.43;7.23;;;;;;;17.20;100.00;95264.50;5014602;28;20276;-73
2023/09/04 10:54:36;;;;;;;11.53;7.80;;;;;;;17.09;100.00;95270.59;5013703;28;20233;-74
2023/09/04 10:57:10;;;;;;;13.37;8.13;;;;;;;17.26;100.00;95266.22;5012092;28;20359;-80
2023/09/04 10:59:54;;;;;;;15.43;8.00;;;;;;;17.33;100.00;95272.19;5017717;28;20332;-80
2023/09/04 11:02:30;;;;;;;11.07;7.10;;;;;;;17.37;100.00;95272.53;5041217;28;20789;-79
2023/09/04 11:04:55;;;;;;;9.60;6.10;;;;;;;17.30;100.00;95269.19;5028382;28;20268;-79
2023/09/04 11:07:21;;;;;;;11.40;6.83;;;;;;;17.16;100.00;95270.47;5010400;28;20237;-79
2023/09/04 11:09:54;;;;;;;11.60;6.83;;;;;;;17.16;100.00;95270.47;5043343;28;20241;-79
2023/09/04 11:12:20;;;;;;;12.80;7.03;;;;;;;17.23;100.00;95269.31;5025429;28;20252;-80
2023/09/04 11:14:55;;;;;;;10.30;6.80;;;;;;;17.31;100.00;95271.63;5012531;28;20238;-79
2023/09/04 11:17:31;;;;;;;12.13;7.40;;;;;;;17.35;100.00;95270.13;5028473;28;20315;-78
2023/09/04 11:19:58;;;;;;;10.40;6.83;;;;;;;17.34;100.00;95268.50;5032491;28;21049;-78
2023/09/04 11:22:24;;;;;;;7.90;5.10;;;;;;;17.31;100.00;95273.47;5014683;28;20630;-79
2023/09/04 11:24:53;;;;;;;7.23;5.70;;;;;;;17.03;100.00;95273.38;5033650;28;20965;-79
2023/09/04 11:27:21;;;;;;;9.37;6.07;;;;;;;16.97;100.00;95271.63;5014356;28;20241;-80
2023/09/04 11:29:47;;;;;;;10.77;6.00;;;;;;;17.05;100.00;95266.78;5014046;28;20298;-80